createdAt,value
2019-04-26T00:00:42.614Z,9.84
2019-04-26T00:03:19.012Z,9.90
2019-04-26T00:05:50.825Z,9.82
2019-04-26T00:08:23.107Z,9.89
2019-04-26T00:11:07.435Z,9.75
2019-04-26T00:13:58.027Z,9.76
2019-04-26T00:16:39.879Z,9.75
2019-04-26T00:19:13.787Z,9.68
2019-04-26T00:21:45.847Z,9.54
2019-04-26T00:24:19.350Z,9.77
2019-04-26T00:26:51.179Z,9.68
2019-04-26T00:29:24.901Z,9.82
2019-04-26T00:31:56.688Z,9.76
2019-04-26T00:34:28.426Z,9.74
2019-04-26T00:37:00.355Z,9.66
2019-04-26T00:39:32.069Z,9.59
2019-04-26T00:42:04.283Z,9.48
2019-04-26T00:44:36.231Z,9.44
2019-04-26T00:47:08.020Z,9.50
2019-04-26T00:49:43.942Z,9.57
2019-04-26T00:52:14.515Z,9.49
2019-04-26T00:54:46.880Z,9.54
2019-04-26T00:57:20.339Z,9.60
2019-04-26T00:59:52.150Z,9.60
2019-04-26T01:02:38.554Z,9.66
2019-04-26T01:05:11.149Z,9.80
2019-04-26T01:07:46.302Z,9.85
2019-04-26T01:10:18.097Z,9.65
2019-04-26T01:12:52.920Z,9.62
2019-04-26T01:15:24.860Z,9.82
2019-04-26T01:17:56.608Z,9.89
2019-04-26T01:20:28.683Z,9.96
2019-04-26T01:23:10.577Z,10.00
2019-04-26T01:26:10.920Z,9.82
2019-04-26T01:28:53.013Z,9.95
2019-04-26T01:31:24.786Z,9.80
2019-04-26T01:33:56.548Z,9.94
2019-04-26T01:36:28.509Z,9.95
2019-04-26T01:39:10.560Z,10.04
2019-04-26T01:41:47.595Z,9.93
2019-04-26T01:44:41.100Z,9.88
2019-04-26T01:47:13.515Z,9.76
2019-04-26T01:49:46.884Z,9.93
2019-04-26T01:52:22.386Z,9.84
2019-04-26T01:54:53.704Z,9.93
2019-04-26T01:57:25.816Z,10.08
2019-04-26T02:00:01.461Z,9.94
2019-04-26T02:02:50.643Z,10.05
2019-04-26T02:05:25.910Z,9.98
2019-04-26T02:07:58.265Z,10.03
2019-04-26T02:10:32.691Z,9.91
2019-04-26T02:13:04.531Z,9.96
2019-04-26T02:15:36.281Z,9.83
2019-04-26T02:18:08.066Z,9.81
2019-04-26T02:20:57.752Z,9.84
2019-04-26T02:23:35.767Z,9.89
2019-04-26T02:26:26.531Z,9.91
2019-04-26T02:28:58.617Z,9.94
2019-04-26T02:31:33.227Z,9.82
2019-04-26T02:34:04.862Z,9.93
2019-04-26T02:36:53.038Z,9.94
2019-04-26T02:39:17.940Z,9.84
2019-04-26T02:41:50.959Z,9.63
2019-04-26T02:44:28.899Z,9.82
2019-04-26T02:47:46.277Z,9.83
2019-04-26T02:50:23.383Z,9.81
2019-04-26T02:53:04.426Z,9.58
2019-04-26T02:55:53.313Z,9.58
2019-04-26T02:58:25.545Z,9.58
2019-04-26T03:00:58.009Z,9.59
2019-04-26T03:03:32.342Z,9.72
2019-04-26T03:06:04.739Z,9.76
2019-04-26T03:08:37.819Z,9.89
2019-04-26T03:11:17.262Z,9.79
2019-04-26T03:13:59.708Z,9.79
2019-04-26T03:16:52.777Z,9.91
2019-04-26T03:19:52.804Z,9.83
2019-04-26T03:22:58.958Z,9.66
2019-04-26T03:26:07.960Z,9.39
2019-04-26T03:28:45.604Z,9.34
2019-04-26T03:31:42.918Z,9.47
2019-04-26T03:34:34.389Z,9.60
2019-04-26T03:38:12.943Z,9.72
2019-04-26T03:40:58.148Z,9.71
2019-04-26T03:43:42.646Z,9.75
2019-04-26T03:46:45.463Z,9.70
2019-04-26T03:50:00.566Z,9.67
2019-04-26T03:53:31.549Z,9.48
2019-04-26T03:56:32.668Z,9.33
2019-04-26T03:59:32.061Z,9.74
2019-04-26T04:02:13.382Z,9.86
2019-04-26T04:04:56.197Z,10.06
2019-04-26T04:07:39.574Z,10.06
2019-04-26T04:10:06.118Z,9.89
2019-04-26T04:13:03.181Z,9.72
2019-04-26T04:15:46.225Z,9.72
2019-04-26T04:18:22.402Z,9.99
2019-04-26T04:21:42.670Z,9.95
2019-04-26T04:24:28.832Z,9.89
2019-04-26T04:27:45.168Z,9.75
2019-04-26T04:30:45.870Z,9.69
2019-04-26T04:33:34.804Z,9.59
2019-04-26T04:36:12.991Z,9.26
2019-04-26T04:39:12.213Z,9.24
2019-04-26T04:41:55.908Z,9.36
2019-04-26T04:45:27.615Z,9.46
2019-04-26T04:48:27.884Z,9.23
2019-04-26T04:51:15.573Z,9.19
2019-04-26T04:54:13.975Z,9.14
2019-04-26T04:57:10.657Z,8.92
2019-04-26T05:00:27.350Z,9.06
2019-04-26T05:03:33.399Z,9.11
2019-04-26T05:06:29.411Z,9.03
2019-04-26T05:09:11.737Z,9.23
2019-04-26T05:12:08.955Z,9.19
2019-04-26T05:15:11.125Z,9.13
2019-04-26T05:18:12.324Z,9.18
2019-04-26T05:21:40.135Z,8.87
2019-04-26T05:24:40.473Z,8.92
2019-04-26T05:28:09.425Z,8.90
2019-04-26T05:31:20.676Z,8.79
2019-04-26T05:34:29.601Z,8.71
2019-04-26T05:37:22.444Z,8.80
2019-04-26T05:40:44.363Z,8.77
2019-04-26T05:43:51.838Z,8.73
2019-04-26T05:46:51.616Z,8.71
2019-04-26T05:50:45.499Z,8.71
2019-04-26T05:54:34.398Z,8.71
2019-04-26T05:57:24.205Z,8.82
2019-04-26T06:00:38.422Z,9.01
2019-04-26T06:03:52.318Z,8.85
2019-04-26T06:06:39.338Z,9.05
2019-04-26T06:09:59.768Z,9.05
2019-04-26T06:12:47.757Z,9.23
2019-04-26T06:15:33.076Z,9.25
2019-04-26T06:18:20.401Z,9.68
2019-04-26T06:21:16.651Z,9.62
2019-04-26T06:24:05.666Z,9.77
2019-04-26T06:27:17.107Z,10.11
2019-04-26T06:29:56.576Z,9.90
2019-04-26T06:32:39.600Z,10.38
2019-04-26T06:35:16.073Z,10.48
2019-04-26T06:38:49.250Z,10.02
2019-04-26T06:41:58.550Z,10.13
2019-04-26T06:44:34.571Z,10.23
2019-04-26T06:47:24.718Z,10.22
2019-04-26T06:50:16.353Z,10.23
2019-04-26T06:53:14.430Z,10.13
2019-04-26T06:55:56.495Z,10.21
2019-04-26T06:59:06.396Z,10.30
2019-04-26T07:01:59.224Z,10.22
2019-04-26T07:04:44.282Z,9.93
2019-04-26T07:07:43.771Z,9.99
2019-04-26T07:10:43.101Z,10.08
2019-04-26T07:13:42.175Z,10.30
2019-04-26T07:16:23.579Z,10.36
2019-04-26T07:19:48.583Z,10.57
2019-04-26T07:22:40.958Z,10.91
2019-04-26T07:26:04.429Z,11.22
2019-04-26T07:28:53.945Z,11.21
2019-04-26T07:31:51.950Z,10.90
2019-04-26T07:35:04.481Z,10.81
2019-04-26T07:38:04.855Z,10.58
2019-04-26T07:41:32.648Z,10.49
2019-04-26T07:44:20.481Z,11.01
2019-04-26T07:47:15.791Z,11.14
2019-04-26T07:50:16.506Z,11.28
2019-04-26T07:53:38.543Z,12.27
2019-04-26T07:56:40.735Z,12.32
2019-04-26T07:59:42.971Z,12.70
2019-04-26T08:02:37.276Z,12.81
2019-04-26T08:05:19.120Z,13.00
2019-04-26T08:07:56.079Z,13.03
2019-04-26T08:10:27.811Z,14.45
2019-04-26T08:13:06.085Z,16.37
2019-04-26T08:15:55.495Z,17.29
2019-04-26T08:18:38.079Z,16.50
2019-04-26T08:21:25.937Z,18.75
2019-04-26T08:24:17.466Z,18.67
2019-04-26T08:27:21.497Z,19.38
2019-04-26T08:29:46.275Z,17.63
2019-04-26T08:32:23.979Z,19.82
2019-04-26T08:35:08.299Z,19.79
2019-04-26T08:37:54.191Z,20.08
2019-04-26T08:40:31.050Z,19.65
2019-04-26T08:43:18.256Z,19.67
2019-04-26T08:46:11.791Z,21.99
2019-04-26T08:48:48.720Z,22.17
2019-04-26T08:51:21.856Z,22.13
2019-04-26T08:53:55.177Z,18.76
2019-04-26T08:56:31.131Z,17.63
2019-04-26T08:59:13.391Z,18.74
2019-04-26T09:01:53.750Z,19.41
2019-04-26T09:04:32.666Z,17.48
2019-04-26T09:07:07.320Z,19.06
2019-04-26T09:09:40.671Z,18.40
2019-04-26T09:12:22.964Z,18.62
2019-04-26T09:14:54.154Z,19.64
2019-04-26T09:17:27.668Z,20.82
2019-04-26T09:20:07.165Z,21.77
2019-04-26T09:22:56.614Z,20.23
2019-04-26T09:25:39.268Z,21.21
2019-04-26T09:28:18.981Z,20.22
2019-04-26T09:31:09.676Z,19.74
2019-04-26T09:33:47.709Z,18.57
2019-04-26T09:36:19.549Z,16.55
2019-04-26T09:38:52.308Z,17.07
2019-04-26T09:41:26.591Z,17.32
2019-04-26T09:44:05.150Z,16.67
2019-04-26T09:46:48.387Z,16.47
2019-04-26T09:49:41.264Z,16.83
2019-04-26T09:52:18.694Z,17.55
2019-04-26T09:54:50.578Z,20.59
2019-04-26T09:57:23.741Z,21.03
2019-04-26T09:59:55.623Z,22.05
2019-04-26T10:02:29.483Z,23.26
2019-04-26T10:05:02.324Z,24.29
2019-04-26T10:07:37.526Z,22.17
2019-04-26T10:10:09.296Z,21.54
2019-04-26T10:12:53.953Z,20.70
2019-04-26T10:15:44.498Z,17.66
2019-04-26T10:18:20.283Z,18.09
2019-04-26T10:20:51.130Z,18.87
2019-04-26T10:23:22.879Z,19.51
2019-04-26T10:25:54.705Z,22.02
2019-04-26T10:28:27.435Z,20.43
2019-04-26T10:31:00.619Z,20.45
2019-04-26T10:33:32.566Z,18.90
2019-04-26T10:36:05.772Z,19.31
2019-04-26T10:38:37.498Z,17.35
2019-04-26T10:41:11.049Z,16.64
2019-04-26T10:43:43.946Z,16.27
2019-04-26T10:46:17.047Z,16.15
2019-04-26T10:48:49.862Z,16.02
2019-04-26T10:51:30.845Z,15.95
2019-04-26T10:54:09.113Z,18.11
2019-04-26T10:56:45.781Z,19.44
2019-04-26T10:59:34.646Z,21.77
2019-04-26T11:02:07.449Z,21.16
2019-04-26T11:04:41.338Z,23.24
2019-04-26T11:07:13.000Z,21.78
2019-04-26T11:09:44.894Z,21.63
2019-04-26T11:12:17.818Z,21.95
2019-04-26T11:14:53.298Z,18.94
2019-04-26T11:17:23.104Z,18.24
2019-04-26T11:19:54.867Z,17.71
2019-04-26T11:22:29.370Z,17.63
2019-04-26T11:25:01.154Z,18.24
2019-04-26T11:27:33.046Z,19.15
2019-04-26T11:30:15.703Z,18.96
2019-04-26T11:32:38.474Z,21.82
2019-04-26T11:35:10.326Z,22.83
2019-04-26T11:37:42.314Z,20.06
2019-04-26T11:40:15.646Z,19.80
2019-04-26T11:42:47.868Z,22.52
2019-04-26T11:45:20.548Z,21.66
2019-04-26T11:47:56.357Z,20.87
2019-04-26T11:50:25.892Z,22.96
2019-04-26T11:52:57.662Z,21.98
2019-04-26T11:55:30.250Z,18.71
2019-04-26T11:58:02.922Z,18.82
2019-04-26T12:00:40.126Z,19.43
2019-04-26T12:03:13.852Z,18.15
2019-04-26T12:06:08.079Z,18.03
2019-04-26T12:08:49.476Z,18.18
2019-04-26T12:11:31.323Z,17.31
2019-04-26T12:13:55.361Z,17.94
2019-04-26T12:16:28.304Z,17.59
2019-04-26T12:19:00.043Z,16.90
2019-04-26T12:21:34.146Z,16.97
2019-04-26T12:24:05.377Z,16.68
2019-04-26T12:26:43.715Z,16.72
2019-04-26T12:29:14.718Z,17.41
2019-04-26T12:31:51.847Z,17.07
2019-04-26T12:34:23.637Z,16.64
2019-04-26T12:36:57.181Z,17.23
2019-04-26T12:39:32.217Z,17.19
2019-04-26T12:42:04.082Z,17.47
2019-04-26T12:44:43.397Z,17.60
2019-04-26T12:47:19.851Z,17.69
2019-04-26T12:49:54.549Z,17.46
2019-04-26T12:52:25.220Z,17.27
2019-04-26T12:54:57.765Z,18.57
2019-04-26T12:57:29.544Z,19.22
2019-04-26T13:00:03.687Z,18.42
2019-04-26T13:02:36.936Z,18.41
2019-04-26T13:05:08.870Z,17.84
2019-04-26T13:07:42.972Z,17.65
2019-04-26T13:10:44.755Z,18.11
2019-04-26T13:13:23.190Z,18.06
2019-04-26T13:16:13.819Z,18.03
2019-04-26T13:18:46.967Z,17.43
2019-04-26T13:21:19.008Z,17.42
2019-04-26T13:23:50.726Z,17.54
2019-04-26T13:26:22.486Z,17.70
2019-04-26T13:28:57.161Z,17.57
2019-04-26T13:31:31.668Z,17.85
2019-04-26T13:34:02.864Z,18.32
2019-04-26T13:36:35.707Z,17.65
2019-04-26T13:39:13.512Z,17.12
2019-04-26T13:41:47.583Z,17.31
2019-04-26T13:44:40.815Z,17.29
2019-04-26T13:47:32.644Z,17.62
2019-04-26T13:50:22.400Z,17.31
2019-04-26T13:52:56.982Z,17.68
2019-04-26T13:55:29.388Z,17.66
2019-04-26T13:58:04.959Z,18.21
2019-04-26T14:00:39.777Z,18.21
2019-04-26T14:03:10.387Z,17.72
2019-04-26T14:05:42.145Z,17.82
2019-04-26T14:08:14.386Z,17.88
2019-04-26T14:10:49.844Z,17.86
2019-04-26T14:13:20.791Z,17.71
2019-04-26T14:15:53.433Z,17.64
2019-04-26T14:18:25.194Z,17.63
2019-04-26T14:21:00.010Z,17.21
2019-04-26T14:24:06.287Z,17.50
2019-04-26T14:26:43.826Z,17.42
2019-04-26T14:29:15.559Z,16.85
2019-04-26T14:31:51.541Z,17.26
2019-04-26T14:34:21.736Z,17.44
2019-04-26T14:37:05.923Z,17.16
2019-04-26T14:39:35.260Z,16.38
2019-04-26T14:42:02.500Z,17.01
2019-04-26T14:44:35.587Z,17.25
2019-04-26T14:47:14.734Z,17.74
2019-04-26T14:49:43.253Z,17.80
2019-04-26T14:52:16.210Z,17.92
2019-04-26T14:54:48.067Z,18.18
2019-04-26T14:57:26.979Z,18.30
2019-04-26T15:00:00.319Z,18.58
2019-04-26T15:02:55.779Z,18.84
2019-04-26T15:05:50.488Z,18.38
2019-04-26T15:08:22.640Z,18.66
2019-04-26T15:11:01.021Z,18.65
2019-04-26T15:13:28.637Z,18.78
2019-04-26T15:16:03.965Z,18.37
2019-04-26T15:18:37.045Z,17.78
2019-04-26T15:21:07.325Z,18.16
2019-04-26T15:23:39.068Z,18.63
2019-04-26T15:26:10.861Z,18.78
2019-04-26T15:28:43.651Z,18.38
2019-04-26T15:31:17.247Z,18.64
2019-04-26T15:33:52.826Z,18.60
2019-04-26T15:36:24.860Z,18.80
2019-04-26T15:38:57.285Z,18.76
2019-04-26T15:41:47.045Z,18.63
2019-04-26T15:44:36.279Z,18.70
2019-04-26T15:47:26.871Z,19.15
2019-04-26T15:50:09.972Z,19.11
2019-04-26T15:52:39.523Z,19.34
2019-04-26T15:55:13.221Z,19.12
2019-04-26T15:57:47.825Z,19.51
2019-04-26T16:00:22.675Z,18.80
2019-04-26T16:02:54.658Z,18.87
2019-04-26T16:05:29.436Z,18.88
2019-04-26T16:08:01.815Z,18.93
2019-04-26T16:10:38.469Z,18.95
2019-04-26T16:13:21.074Z,18.28
2019-04-26T16:15:48.715Z,18.08
2019-04-26T16:18:20.046Z,18.33
2019-04-26T16:21:01.985Z,18.43
2019-04-26T16:23:41.230Z,18.53
2019-04-26T16:26:12.930Z,18.38
2019-04-26T16:29:18.195Z,18.25
2019-04-26T16:32:05.601Z,17.98
2019-04-26T16:34:42.921Z,17.80
2019-04-26T16:37:14.987Z,18.07
2019-04-26T16:39:48.641Z,17.82
2019-04-26T16:42:23.438Z,18.25
2019-04-26T16:44:55.437Z,17.84
2019-04-26T16:47:27.162Z,17.93
2019-04-26T16:50:01.249Z,17.79
2019-04-26T16:52:33.716Z,17.78
2019-04-26T16:55:15.277Z,18.02
2019-04-26T16:57:43.761Z,17.96
2019-04-26T17:00:16.219Z,18.06
2019-04-26T17:02:46.104Z,17.83
2019-04-26T17:05:23.918Z,17.47
2019-04-26T17:07:58.823Z,17.52
2019-04-26T17:10:28.144Z,17.72
2019-04-26T17:12:59.916Z,17.44
2019-04-26T17:15:32.347Z,17.54
2019-04-26T17:18:05.277Z,17.46
2019-04-26T17:20:40.556Z,17.37
2019-04-26T17:23:33.388Z,17.10
2019-04-26T17:26:29.338Z,17.26
2019-04-26T17:29:02.276Z,17.00
2019-04-26T17:31:34.124Z,16.89
2019-04-26T17:34:05.980Z,16.63
2019-04-26T17:36:37.831Z,16.57
2019-04-26T17:39:16.950Z,16.83
2019-04-26T17:41:50.794Z,16.81
2019-04-26T17:44:26.311Z,16.66
2019-04-26T17:46:56.935Z,16.76
2019-04-26T17:49:28.922Z,16.52
2019-04-26T17:52:01.994Z,16.39
2019-04-26T17:54:46.068Z,16.38
2019-04-26T17:57:12.625Z,16.39
2019-04-26T17:59:47.770Z,16.21
2019-04-26T18:02:31.279Z,16.02
2019-04-26T18:04:58.970Z,16.03
2019-04-26T18:07:39.667Z,15.83
2019-04-26T18:10:02.424Z,15.83
2019-04-26T18:12:32.654Z,15.85
2019-04-26T18:15:10.404Z,15.81
2019-04-26T18:18:00.433Z,15.86
2019-04-26T18:20:51.510Z,15.63
2019-04-26T18:23:23.729Z,15.52
2019-04-26T18:25:55.518Z,15.56
2019-04-26T18:28:27.409Z,15.17
2019-04-26T18:30:59.511Z,15.25
2019-04-26T18:33:32.855Z,15.27
2019-04-26T18:36:04.877Z,15.16
2019-04-26T18:38:36.730Z,14.98
2019-04-26T18:41:08.524Z,14.91
2019-04-26T18:43:43.024Z,14.86
2019-04-26T18:46:24.075Z,14.80
2019-04-26T18:48:58.726Z,14.64
2019-04-26T18:51:30.586Z,14.56
2019-04-26T18:54:20.442Z,14.38
2019-04-26T18:56:55.170Z,14.40
2019-04-26T18:59:27.989Z,14.30
2019-04-26T19:02:00.074Z,14.13
2019-04-26T19:04:33.489Z,13.99
2019-04-26T19:07:05.862Z,13.86
2019-04-26T19:09:56.626Z,13.87
2019-04-26T19:12:14.470Z,13.76
2019-04-26T19:15:07.509Z,13.59
2019-04-26T19:17:46.331Z,13.56
2019-04-26T19:20:35.708Z,13.67
2019-04-26T19:23:09.120Z,13.65
2019-04-26T19:25:41.396Z,13.47
2019-04-26T19:28:13.596Z,13.42
2019-04-26T19:30:49.211Z,13.34
2019-04-26T19:33:19.082Z,13.28
2019-04-26T19:35:50.973Z,13.24
2019-04-26T19:38:22.857Z,13.17
2019-04-26T19:40:56.918Z,13.11
2019-04-26T19:44:06.447Z,13.12
2019-04-26T19:47:09.352Z,13.07
2019-04-26T19:50:09.595Z,12.84
2019-04-26T19:53:03.002Z,12.79
2019-04-26T19:59:23.422Z,12.75
2019-04-26T20:01:57.658Z,12.47
2019-04-26T20:04:33.863Z,12.39
2019-04-26T20:07:04.361Z,12.39
2019-04-26T20:09:38.070Z,12.41
2019-04-26T20:12:10.004Z,12.21
2019-04-26T20:14:49.096Z,12.14
2019-04-26T20:17:20.107Z,12.12
2019-04-26T20:19:52.818Z,12.06
2019-04-26T20:22:28.356Z,12.30
2019-04-26T20:24:57.855Z,12.31
2019-04-26T20:27:32.231Z,12.20
2019-04-26T20:30:06.805Z,12.28
2019-04-26T20:32:43.291Z,12.36
2019-04-26T20:35:19.900Z,12.38
2019-04-26T20:37:52.065Z,12.08
2019-04-26T20:40:25.603Z,12.05
2019-04-26T20:43:05.362Z,11.98
2019-04-26T20:45:39.828Z,11.79
2019-04-26T20:48:07.072Z,11.76
2019-04-26T20:50:38.931Z,11.78
2019-04-26T20:53:12.000Z,11.49
2019-04-26T20:55:47.061Z,11.47
2019-04-26T20:58:19.103Z,11.66
2019-04-26T21:00:54.589Z,11.59
2019-04-26T21:18:56.271Z,11.53
2019-04-26T21:21:28.229Z,11.64
2019-04-26T21:24:03.731Z,11.53
2019-04-26T21:26:56.953Z,11.44
2019-04-26T21:29:44.407Z,11.25
2019-04-26T21:32:25.948Z,11.09
2019-04-26T21:35:01.092Z,11.12
2019-04-26T21:37:53.941Z,11.09
2019-04-26T21:40:39.305Z,10.96
2019-04-26T21:43:11.115Z,10.95
2019-04-26T21:45:44.043Z,10.86
2019-04-26T21:48:18.368Z,10.77
2019-04-26T21:50:50.531Z,10.73
2019-04-26T21:53:23.929Z,10.67
2019-04-26T21:55:56.162Z,10.67
2019-04-26T21:58:31.027Z,10.76
2019-04-26T22:01:18.986Z,10.95
2019-04-26T22:03:58.319Z,10.77
2019-04-26T22:06:29.121Z,10.73
2019-04-26T22:09:33.277Z,10.55
2019-04-26T22:12:03.626Z,10.70
2019-04-26T22:14:37.192Z,10.56
2019-04-26T22:17:28.457Z,10.60
2019-04-26T22:20:28.763Z,10.65
2019-04-26T22:23:25.500Z,10.68
2019-04-26T22:26:00.181Z,10.52
2019-04-26T22:28:36.096Z,10.60
2019-04-26T22:31:08.418Z,10.38
2019-04-26T22:33:39.827Z,10.32
2019-04-26T22:36:13.160Z,10.17
2019-04-26T22:38:45.175Z,10.12
2019-04-26T22:41:16.898Z,10.13
2019-04-26T22:44:13.932Z,10.07
2019-04-26T22:47:24.089Z,10.11
2019-04-26T22:49:56.156Z,10.07
2019-04-26T22:52:28.763Z,9.54
2019-04-26T22:55:00.738Z,9.41
2019-04-26T22:57:33.379Z,9.65
2019-04-26T23:00:05.388Z,9.69
2019-04-26T23:02:38.910Z,9.71
2019-04-26T23:05:10.675Z,9.98
2019-04-26T23:07:42.446Z,9.86
2019-04-26T23:10:15.295Z,9.79
2019-04-26T23:13:10.717Z,9.78
2019-04-26T23:16:05.239Z,9.86
2019-04-26T23:18:51.570Z,9.78
2019-04-26T23:21:28.231Z,9.93
2019-04-26T23:24:00.005Z,9.76
2019-04-26T23:26:33.467Z,9.45
2019-04-26T23:29:08.707Z,9.55
2019-04-26T23:31:41.724Z,9.50
2019-04-26T23:34:14.305Z,9.73
2019-04-26T23:36:49.108Z,9.54
2019-04-26T23:39:19.780Z,9.60
2019-04-26T23:41:51.521Z,9.42
2019-04-26T23:44:24.928Z,9.40
2019-04-26T23:47:01.172Z,9.31
2019-04-26T23:49:30.213Z,9.36
2019-04-26T23:52:03.681Z,9.18
2019-04-26T23:54:35.943Z,9.08
2019-04-26T23:57:08.057Z,9.00
2019-04-26T23:59:40.753Z,8.97
